sensor_id;sensor_type;location;lat;lon;timestamp;temperature;humidity
65072;DHT22;51663;52.310;17.016;2023-05-10T00:05:52;29.80;22.20
65072;DHT22;51663;52.310;17.016;2023-05-10T00:08:54;30.00;22.10
65072;DHT22;51663;52.310;17.016;2023-05-10T00:11:57;29.60;22.10
65072;DHT22;51663;52.310;17.016;2023-05-10T00:15:00;29.60;22.40
65072;DHT22;51663;52.310;17.016;2023-05-10T00:18:02;29.50;22.30
65072;DHT22;51663;52.310;17.016;2023-05-10T00:21:05;29.70;22.20
65072;DHT22;51663;52.310;17.016;2023-05-10T00:24:08;29.50;22.20
65072;DHT22;51663;52.310;17.016;2023-05-10T00:27:10;29.60;22.20
65072;DHT22;51663;52.310;17.016;2023-05-10T00:30:12;29.10;22.40
65072;DHT22;51663;52.310;17.016;2023-05-10T00:33:15;29.10;22.60
65072;DHT22;51663;52.310;17.016;2023-05-10T00:36:18;29.30;22.50
65072;DHT22;51663;52.310;17.016;2023-05-10T00:39:21;29.10;22.40
65072;DHT22;51663;52.310;17.016;2023-05-10T00:42:23;29.00;22.70
65072;DHT22;51663;52.310;17.016;2023-05-10T00:45:26;29.10;22.40
65072;DHT22;51663;52.310;17.016;2023-05-10T00:48:29;29.10;22.30
65072;DHT22;51663;52.310;17.016;2023-05-10T00:51:31;28.90;22.40
65072;DHT22;51663;52.310;17.016;2023-05-10T00:54:33;29.00;23.00
65072;DHT22;51663;52.310;17.016;2023-05-10T00:57:37;29.10;22.30
65072;DHT22;51663;52.310;17.016;2023-05-10T01:00:42;29.10;22.20
65072;DHT22;51663;52.310;17.016;2023-05-10T01:03:46;29.20;22.20
65072;DHT22;51663;52.310;17.016;2023-05-10T01:06:48;29.10;22.20
65072;DHT22;51663;52.310;17.016;2023-05-10T01:09:51;29.10;22.20
65072;DHT22;51663;52.310;17.016;2023-05-10T01:12:53;29.40;22.00
65072;DHT22;51663;52.310;17.016;2023-05-10T01:15:57;29.30;22.10
65072;DHT22;51663;52.310;17.016;2023-05-10T01:19:00;28.70;22.30
65072;DHT22;51663;52.310;17.016;2023-05-10T01:31:57;28.80;22.60
65072;DHT22;51663;52.310;17.016;2023-05-10T01:38:43;28.40;22.50
65072;DHT22;51663;52.310;17.016;2023-05-10T01:41:52;28.40;22.70
65072;DHT22;51663;52.310;17.016;2023-05-10T01:45:20;28.70;23.10
65072;DHT22;51663;52.310;17.016;2023-05-10T01:48:26;28.90;22.40
65072;DHT22;51663;52.310;17.016;2023-05-10T01:51:35;28.70;22.50
65072;DHT22;51663;52.310;17.016;2023-05-10T01:54:45;28.90;22.50
65072;DHT22;51663;52.310;17.016;2023-05-10T01:57:56;29.20;22.40
65072;DHT22;51663;52.310;17.016;2023-05-10T02:01:03;29.10;22.30
65072;DHT22;51663;52.310;17.016;2023-05-10T02:04:08;29.20;22.20
65072;DHT22;51663;52.310;17.016;2023-05-10T02:07:13;28.90;22.30
65072;DHT22;51663;52.310;17.016;2023-05-10T02:10:17;29.20;22.40
65072;DHT22;51663;52.310;17.016;2023-05-10T02:13:21;29.10;22.30
65072;DHT22;51663;52.310;17.016;2023-05-10T02:16:26;29.30;22.20
65072;DHT22;51663;52.310;17.016;2023-05-10T02:19:30;29.10;22.20
65072;DHT22;51663;52.310;17.016;2023-05-10T02:22:35;29.30;22.30
65072;DHT22;51663;52.310;17.016;2023-05-10T02:25:38;29.30;22.30
65072;DHT22;51663;52.310;17.016;2023-05-10T02:28:42;29.10;22.30
65072;DHT22;51663;52.310;17.016;2023-05-10T02:31:45;29.20;22.20
65072;DHT22;51663;52.310;17.016;2023-05-10T02:34:49;29.00;22.40
65072;DHT22;51663;52.310;17.016;2023-05-10T02:37:54;29.10;22.50
65072;DHT22;51663;52.310;17.016;2023-05-10T02:40:58;29.10;22.50
65072;DHT22;51663;52.310;17.016;2023-05-10T02:44:02;29.30;22.50
65072;DHT22;51663;52.310;17.016;2023-05-10T02:47:05;29.30;22.40
65072;DHT22;51663;52.310;17.016;2023-05-10T02:50:08;29.10;22.50
65072;DHT22;51663;52.310;17.016;2023-05-10T02:53:14;29.20;22.60
65072;DHT22;51663;52.310;17.016;2023-05-10T02:56:24;29.10;22.70
65072;DHT22;51663;52.310;17.016;2023-05-10T02:59:27;28.90;22.80
65072;DHT22;51663;52.310;17.016;2023-05-10T03:02:30;28.80;23.30
65072;DHT22;51663;52.310;17.016;2023-05-10T03:05:33;28.60;22.90
65072;DHT22;51663;52.310;17.016;2023-05-10T03:08:36;28.70;22.90
65072;DHT22;51663;52.310;17.016;2023-05-10T03:18:33;28.50;22.90
65072;DHT22;51663;52.310;17.016;2023-05-10T03:21:41;28.60;23.00
65072;DHT22;51663;52.310;17.016;2023-05-10T03:24:46;28.60;23.10
65072;DHT22;51663;52.310;17.016;2023-05-10T03:27:50;28.80;23.00
65072;DHT22;51663;52.310;17.016;2023-05-10T03:30:54;28.80;22.70
65072;DHT22;51663;52.310;17.016;2023-05-10T03:33:57;28.70;22.90
65072;DHT22;51663;52.310;17.016;2023-05-10T03:37:00;28.60;22.90
65072;DHT22;51663;52.310;17.016;2023-05-10T03:40:03;28.50;23.00
65072;DHT22;51663;52.310;17.016;2023-05-10T03:43:05;28.60;23.10
65072;DHT22;51663;52.310;17.016;2023-05-10T03:46:08;28.60;23.00
65072;DHT22;51663;52.310;17.016;2023-05-10T03:49:10;28.80;23.00
65072;DHT22;51663;52.310;17.016;2023-05-10T03:52:12;28.80;23.00
65072;DHT22;51663;52.310;17.016;2023-05-10T03:55:15;29.00;22.90
65072;DHT22;51663;52.310;17.016;2023-05-10T03:58:18;29.00;22.90
65072;DHT22;51663;52.310;17.016;2023-05-10T04:01:20;29.00;22.90
65072;DHT22;51663;52.310;17.016;2023-05-10T04:04:23;29.10;22.70
65072;DHT22;51663;52.310;17.016;2023-05-10T04:07:26;29.20;22.90
65072;DHT22;51663;52.310;17.016;2023-05-10T04:10:28;29.00;23.00
65072;DHT22;51663;52.310;17.016;2023-05-10T04:13:30;29.20;22.70
65072;DHT22;51663;52.310;17.016;2023-05-10T04:16:33;29.60;22.60
65072;DHT22;51663;52.310;17.016;2023-05-10T04:19:35;29.80;22.30
65072;DHT22;51663;52.310;17.016;2023-05-10T04:22:39;30.00;22.20
65072;DHT22;51663;52.310;17.016;2023-05-10T04:25:41;29.80;22.40
65072;DHT22;51663;52.310;17.016;2023-05-10T04:28:44;29.80;22.40
65072;DHT22;51663;52.310;17.016;2023-05-10T04:31:46;29.60;22.40
65072;DHT22;51663;52.310;17.016;2023-05-10T04:34:49;29.80;22.60
65072;DHT22;51663;52.310;17.016;2023-05-10T04:37:53;29.60;22.70
65072;DHT22;51663;52.310;17.016;2023-05-10T04:41:04;29.70;22.50
65072;DHT22;51663;52.310;17.016;2023-05-10T04:44:07;29.90;22.60
65072;DHT22;51663;52.310;17.016;2023-05-10T04:47:09;30.20;22.30
65072;DHT22;51663;52.310;17.016;2023-05-10T04:50:13;31.10;22.10
65072;DHT22;51663;52.310;17.016;2023-05-10T04:53:16;32.10;21.50
65072;DHT22;51663;52.310;17.016;2023-05-10T04:56:18;33.50;20.80
65072;DHT22;51663;52.310;17.016;2023-05-10T04:59:21;34.70;20.00
65072;DHT22;51663;52.310;17.016;2023-05-10T05:02:23;35.60;19.40
65072;DHT22;51663;52.310;17.016;2023-05-10T05:05:26;36.30;18.70
65072;DHT22;51663;52.310;17.016;2023-05-10T05:08:28;36.60;18.50
65072;DHT22;51663;52.310;17.016;2023-05-10T05:11:30;36.00;18.50
65072;DHT22;51663;52.310;17.016;2023-05-10T05:14:32;36.10;18.70
65072;DHT22;51663;52.310;17.016;2023-05-10T05:17:35;36.70;18.60
65072;DHT22;51663;52.310;17.016;2023-05-10T05:20:37;37.20;18.20
65072;DHT22;51663;52.310;17.016;2023-05-10T05:23:40;38.10;17.90
65072;DHT22;51663;52.310;17.016;2023-05-10T05:26:42;37.90;17.50
65072;DHT22;51663;52.310;17.016;2023-05-10T05:29:44;38.40;17.50
65072;DHT22;51663;52.310;17.016;2023-05-10T05:32:46;38.10;17.50
65072;DHT22;51663;52.310;17.016;2023-05-10T05:35:52;38.20;17.40
65072;DHT22;51663;52.310;17.016;2023-05-10T05:38:55;38.10;17.40
65072;DHT22;51663;52.310;17.016;2023-05-10T05:41:59;37.30;17.50
65072;DHT22;51663;52.310;17.016;2023-05-10T05:45:01;37.00;18.00
65072;DHT22;51663;52.310;17.016;2023-05-10T05:48:04;37.10;18.40
65072;DHT22;51663;52.310;17.016;2023-05-10T05:51:06;37.10;18.10
65072;DHT22;51663;52.310;17.016;2023-05-10T05:54:08;37.60;18.30
65072;DHT22;51663;52.310;17.016;2023-05-10T05:57:10;38.10;17.70
65072;DHT22;51663;52.310;17.016;2023-05-10T06:00:13;38.70;17.90
65072;DHT22;51663;52.310;17.016;2023-05-10T06:03:15;38.70;17.40
65072;DHT22;51663;52.310;17.016;2023-05-10T06:23:50;35.60;18.10
65072;DHT22;51663;52.310;17.016;2023-05-10T06:26:53;37.70;18.70
65072;DHT22;51663;52.310;17.016;2023-05-10T06:29:54;38.80;18.20
65072;DHT22;51663;52.310;17.016;2023-05-10T06:33:06;38.90;17.40
65072;DHT22;51663;52.310;17.016;2023-05-10T06:36:08;39.50;17.30
65072;DHT22;51663;52.310;17.016;2023-05-10T06:39:11;39.40;17.40
65072;DHT22;51663;52.310;17.016;2023-05-10T06:42:13;40.20;17.30
65072;DHT22;51663;52.310;17.016;2023-05-10T06:45:16;40.60;17.20
65072;DHT22;51663;52.310;17.016;2023-05-10T06:48:18;41.10;16.80
65072;DHT22;51663;52.310;17.016;2023-05-10T06:51:21;40.70;16.40
65072;DHT22;51663;52.310;17.016;2023-05-10T06:54:22;40.90;16.70
65072;DHT22;51663;52.310;17.016;2023-05-10T06:57:25;40.50;16.90
65072;DHT22;51663;52.310;17.016;2023-05-10T07:00:33;40.10;16.90
65072;DHT22;51663;52.310;17.016;2023-05-10T07:03:35;40.30;17.00
65072;DHT22;51663;52.310;17.016;2023-05-10T07:06:37;39.80;17.00
65072;DHT22;51663;52.310;17.016;2023-05-10T07:09:39;40.00;17.20
65072;DHT22;51663;52.310;17.016;2023-05-10T07:12:41;40.20;17.70
65072;DHT22;51663;52.310;17.016;2023-05-10T07:15:44;39.90;17.00
65072;DHT22;51663;52.310;17.016;2023-05-10T07:18:46;39.30;17.30
65072;DHT22;51663;52.310;17.016;2023-05-10T07:21:48;39.60;17.60
65072;DHT22;51663;52.310;17.016;2023-05-10T07:24:51;39.60;17.30
65072;DHT22;51663;52.310;17.016;2023-05-10T07:27:53;40.00;17.30
65072;DHT22;51663;52.310;17.016;2023-05-10T07:30:55;40.00;17.00
65072;DHT22;51663;52.310;17.016;2023-05-10T07:33:58;40.00;17.20
65072;DHT22;51663;52.310;17.016;2023-05-10T07:37:00;39.70;17.30
65072;DHT22;51663;52.310;17.016;2023-05-10T07:40:03;39.70;17.90
65072;DHT22;51663;52.310;17.016;2023-05-10T07:43:05;39.90;17.40
65072;DHT22;51663;52.310;17.016;2023-05-10T07:46:07;40.00;17.20
65072;DHT22;51663;52.310;17.016;2023-05-10T07:49:12;40.20;17.30
65072;DHT22;51663;52.310;17.016;2023-05-10T07:52:14;40.40;17.20
65072;DHT22;51663;52.310;17.016;2023-05-10T07:55:18;40.50;17.00
65072;DHT22;51663;52.310;17.016;2023-05-10T07:58:25;40.90;16.80
65072;DHT22;51663;52.310;17.016;2023-05-10T08:01:29;40.60;17.20
65072;DHT22;51663;52.310;17.016;2023-05-10T08:04:32;40.30;17.20
65072;DHT22;51663;52.310;17.016;2023-05-10T08:07:34;40.20;17.80
65072;DHT22;51663;52.310;17.016;2023-05-10T08:10:36;39.80;17.90
65072;DHT22;51663;52.310;17.016;2023-05-10T08:13:38;39.80;17.40
65072;DHT22;51663;52.310;17.016;2023-05-10T08:16:40;39.50;17.50
65072;DHT22;51663;52.310;17.016;2023-05-10T08:19:42;39.00;17.60
65072;DHT22;51663;52.310;17.016;2023-05-10T08:22:45;39.00;17.80
65072;DHT22;51663;52.310;17.016;2023-05-10T08:25:50;38.60;18.30
65072;DHT22;51663;52.310;17.016;2023-05-10T08:28:52;39.10;18.20
65072;DHT22;51663;52.310;17.016;2023-05-10T08:31:54;39.10;18.70
65072;DHT22;51663;52.310;17.016;2023-05-10T08:34:56;38.90;17.90
65072;DHT22;51663;52.310;17.016;2023-05-10T08:37:58;38.50;18.30
65072;DHT22;51663;52.310;17.016;2023-05-10T08:41:02;37.80;18.60
65072;DHT22;51663;52.310;17.016;2023-05-10T08:44:04;37.00;18.60
65072;DHT22;51663;52.310;17.016;2023-05-10T08:47:09;36.50;18.90
65072;DHT22;51663;52.310;17.016;2023-05-10T08:50:12;36.20;19.40
65072;DHT22;51663;52.310;17.016;2023-05-10T08:53:16;35.90;19.70
65072;DHT22;51663;52.310;17.016;2023-05-10T08:56:19;35.80;20.00
65072;DHT22;51663;52.310;17.016;2023-05-10T08:59:22;35.40;19.60
65072;DHT22;51663;52.310;17.016;2023-05-10T09:02:25;35.00;19.80
65072;DHT22;51663;52.310;17.016;2023-05-10T09:05:27;34.90;19.70
65072;DHT22;51663;52.310;17.016;2023-05-10T09:08:30;34.80;19.30
65072;DHT22;51663;52.310;17.016;2023-05-10T09:11:33;34.30;19.40
65072;DHT22;51663;52.310;17.016;2023-05-10T09:14:35;34.00;18.90
65072;DHT22;51663;52.310;17.016;2023-05-10T09:17:42;33.70;19.60
65072;DHT22;51663;52.310;17.016;2023-05-10T09:20:44;33.60;19.70
65072;DHT22;51663;52.310;17.016;2023-05-10T09:23:47;33.30;19.70
65072;DHT22;51663;52.310;17.016;2023-05-10T09:26:51;33.20;20.00
65072;DHT22;51663;52.310;17.016;2023-05-10T09:29:54;33.00;20.20
65072;DHT22;51663;52.310;17.016;2023-05-10T09:32:58;32.90;20.10
65072;DHT22;51663;52.310;17.016;2023-05-10T09:36:07;33.00;19.20
65072;DHT22;51663;52.310;17.016;2023-05-10T09:39:09;32.60;19.70
65072;DHT22;51663;52.310;17.016;2023-05-10T09:42:12;32.60;20.40
65072;DHT22;51663;52.310;17.016;2023-05-10T09:45:14;32.80;19.90
65072;DHT22;51663;52.310;17.016;2023-05-10T09:48:16;32.60;20.00
65072;DHT22;51663;52.310;17.016;2023-05-10T09:51:23;32.60;19.80
65072;DHT22;51663;52.310;17.016;2023-05-10T09:54:25;32.30;20.20
65072;DHT22;51663;52.310;17.016;2023-05-10T09:57:27;32.20;20.30
65072;DHT22;51663;52.310;17.016;2023-05-10T10:00:36;32.50;20.30
65072;DHT22;51663;52.310;17.016;2023-05-10T10:03:42;33.00;20.00
65072;DHT22;51663;52.310;17.016;2023-05-10T10:06:45;33.00;19.60
65072;DHT22;51663;52.310;17.016;2023-05-10T10:09:47;33.30;19.70
65072;DHT22;51663;52.310;17.016;2023-05-10T10:12:50;33.00;19.50
65072;DHT22;51663;52.310;17.016;2023-05-10T10:15:53;33.00;19.50
65072;DHT22;51663;52.310;17.016;2023-05-10T10:18:57;32.90;20.00
65072;DHT22;51663;52.310;17.016;2023-05-10T10:22:00;33.20;19.60
65072;DHT22;51663;52.310;17.016;2023-05-10T10:25:04;33.00;19.90
65072;DHT22;51663;52.310;17.016;2023-05-10T10:31:40;33.30;20.00
65072;DHT22;51663;52.310;17.016;2023-05-10T10:34:43;33.40;19.40
65072;DHT22;51663;52.310;17.016;2023-05-10T10:37:47;33.70;19.70
65072;DHT22;51663;52.310;17.016;2023-05-10T10:41:11;34.00;19.40
65072;DHT22;51663;52.310;17.016;2023-05-10T10:47:36;33.50;19.70
65072;DHT22;51663;52.310;17.016;2023-05-10T10:50:45;33.70;19.80
65072;DHT22;51663;52.310;17.016;2023-05-10T10:53:48;33.50;19.50
65072;DHT22;51663;52.310;17.016;2023-05-10T10:57:10;33.90;19.40
65072;DHT22;51663;52.310;17.016;2023-05-10T11:03:33;33.90;19.40
65072;DHT22;51663;52.310;17.016;2023-05-10T11:06:36;34.10;19.40
65072;DHT22;51663;52.310;17.016;2023-05-10T11:09:41;34.00;19.20
65072;DHT22;51663;52.310;17.016;2023-05-10T11:13:03;34.00;19.70
65072;DHT22;51663;52.310;17.016;2023-05-10T11:19:21;34.00;20.00
65072;DHT22;51663;52.310;17.016;2023-05-10T11:22:29;33.70;19.70
65072;DHT22;51663;52.310;17.016;2023-05-10T11:25:32;33.90;20.30
65072;DHT22;51663;52.310;17.016;2023-05-10T11:28:45;33.70;19.40
65072;DHT22;51663;52.310;17.016;2023-05-10T11:31:48;33.80;20.00
65072;DHT22;51663;52.310;17.016;2023-05-10T11:34:51;33.40;20.30
65072;DHT22;51663;52.310;17.016;2023-05-10T11:37:53;33.40;20.40
65072;DHT22;51663;52.310;17.016;2023-05-10T11:40:55;33.30;20.10
65072;DHT22;51663;52.310;17.016;2023-05-10T11:43:58;33.10;20.10
65072;DHT22;51663;52.310;17.016;2023-05-10T11:47:02;33.50;20.20
65072;DHT22;51663;52.310;17.016;2023-05-10T11:50:05;33.10;19.90
65072;DHT22;51663;52.310;17.016;2023-05-10T11:53:08;33.20;20.20
65072;DHT22;51663;52.310;17.016;2023-05-10T11:56:10;33.10;20.50
65072;DHT22;51663;52.310;17.016;2023-05-10T11:59:14;33.50;20.50
65072;DHT22;51663;52.310;17.016;2023-05-10T12:02:16;33.60;20.50
65072;DHT22;51663;52.310;17.016;2023-05-10T12:05:19;34.00;20.30
65072;DHT22;51663;52.310;17.016;2023-05-10T12:08:25;34.10;19.90
65072;DHT22;51663;52.310;17.016;2023-05-10T12:11:28;34.10;19.60
65072;DHT22;51663;52.310;17.016;2023-05-10T12:14:34;34.40;19.50
65072;DHT22;51663;52.310;17.016;2023-05-10T12:17:38;34.00;20.20
65072;DHT22;51663;52.310;17.016;2023-05-10T12:20:44;33.90;20.30
65072;DHT22;51663;52.310;17.016;2023-05-10T12:23:51;34.40;20.00
65072;DHT22;51663;52.310;17.016;2023-05-10T12:26:54;34.80;19.60
65072;DHT22;51663;52.310;17.016;2023-05-10T12:29:59;34.80;19.40
65072;DHT22;51663;52.310;17.016;2023-05-10T12:33:10;34.60;19.40
65072;DHT22;51663;52.310;17.016;2023-05-10T12:36:14;34.80;19.20
65072;DHT22;51663;52.310;17.016;2023-05-10T12:39:16;35.10;19.20
65072;DHT22;51663;52.310;17.016;2023-05-10T12:42:19;34.80;19.60
65072;DHT22;51663;52.310;17.016;2023-05-10T12:45:21;34.50;19.70
65072;DHT22;51663;52.310;17.016;2023-05-10T12:48:24;34.20;19.70
65072;DHT22;51663;52.310;17.016;2023-05-10T12:51:26;34.20;19.60
65072;DHT22;51663;52.310;17.016;2023-05-10T12:54:28;34.60;19.70
65072;DHT22;51663;52.310;17.016;2023-05-10T12:57:30;34.70;19.40
65072;DHT22;51663;52.310;17.016;2023-05-10T13:00:33;34.60;19.80
65072;DHT22;51663;52.310;17.016;2023-05-10T13:03:35;34.70;19.90
65072;DHT22;51663;52.310;17.016;2023-05-10T13:06:37;35.10;19.80
65072;DHT22;51663;52.310;17.016;2023-05-10T13:09:39;34.70;19.90
65072;DHT22;51663;52.310;17.016;2023-05-10T13:12:42;34.40;19.90
65072;DHT22;51663;52.310;17.016;2023-05-10T13:15:47;34.60;20.00
65072;DHT22;51663;52.310;17.016;2023-05-10T13:18:52;35.10;19.80
65072;DHT22;51663;52.310;17.016;2023-05-10T13:21:54;35.10;19.60
65072;DHT22;51663;52.310;17.016;2023-05-10T13:24:57;35.00;19.90
65072;DHT22;51663;52.310;17.016;2023-05-10T13:27:59;34.90;19.80
65072;DHT22;51663;52.310;17.016;2023-05-10T13:31:01;34.80;19.80
65072;DHT22;51663;52.310;17.016;2023-05-10T13:34:05;34.30;19.80
65072;DHT22;51663;52.310;17.016;2023-05-10T13:37:07;34.50;19.80
65072;DHT22;51663;52.310;17.016;2023-05-10T13:40:10;34.60;20.00
65072;DHT22;51663;52.310;17.016;2023-05-10T13:43:13;34.70;20.10
65072;DHT22;51663;52.310;17.016;2023-05-10T13:46:15;34.90;20.00
65072;DHT22;51663;52.310;17.016;2023-05-10T13:49:17;34.90;19.70
65072;DHT22;51663;52.310;17.016;2023-05-10T13:52:19;34.70;19.90
65072;DHT22;51663;52.310;17.016;2023-05-10T13:55:22;34.70;20.00
65072;DHT22;51663;52.310;17.016;2023-05-10T13:58:24;34.60;20.00
65072;DHT22;51663;52.310;17.016;2023-05-10T14:01:26;34.80;20.10
65072;DHT22;51663;52.310;17.016;2023-05-10T14:04:29;35.10;20.00
65072;DHT22;51663;52.310;17.016;2023-05-10T14:07:32;34.80;20.20
65072;DHT22;51663;52.310;17.016;2023-05-10T14:10:35;34.90;20.40
65072;DHT22;51663;52.310;17.016;2023-05-10T14:13:37;34.90;20.20
65072;DHT22;51663;52.310;17.016;2023-05-10T14:16:42;34.80;20.30
65072;DHT22;51663;52.310;17.016;2023-05-10T14:19:45;35.10;20.20
65072;DHT22;51663;52.310;17.016;2023-05-10T14:22:48;34.90;20.30
65072;DHT22;51663;52.310;17.016;2023-05-10T14:25:51;34.80;20.40
65072;DHT22;51663;52.310;17.016;2023-05-10T14:28:53;34.20;20.70
65072;DHT22;51663;52.310;17.016;2023-05-10T14:31:55;34.60;20.70
65072;DHT22;51663;52.310;17.016;2023-05-10T14:34:58;34.90;20.40
65072;DHT22;51663;52.310;17.016;2023-05-10T14:38:02;35.00;20.30
65072;DHT22;51663;52.310;17.016;2023-05-10T14:41:05;35.20;20.30
65072;DHT22;51663;52.310;17.016;2023-05-10T14:44:07;35.00;20.90
65072;DHT22;51663;52.310;17.016;2023-05-10T14:47:09;35.20;20.70
65072;DHT22;51663;52.310;17.016;2023-05-10T14:50:13;35.40;20.40
65072;DHT22;51663;52.310;17.016;2023-05-10T14:53:36;35.60;20.30
65072;DHT22;51663;52.310;17.016;2023-05-10T14:56:38;35.50;20.40
65072;DHT22;51663;52.310;17.016;2023-05-10T14:59:41;35.90;20.00
65072;DHT22;51663;52.310;17.016;2023-05-10T15:02:43;35.90;19.70
65072;DHT22;51663;52.310;17.016;2023-05-10T15:05:46;36.30;19.80
65072;DHT22;51663;52.310;17.016;2023-05-10T15:08:49;36.50;19.90
65072;DHT22;51663;52.310;17.016;2023-05-10T15:11:51;36.70;20.00
65072;DHT22;51663;52.310;17.016;2023-05-10T15:14:54;36.50;19.70
65072;DHT22;51663;52.310;17.016;2023-05-10T15:17:56;36.90;19.80
65072;DHT22;51663;52.310;17.016;2023-05-10T15:37:09;33.90;20.30
65072;DHT22;51663;52.310;17.016;2023-05-10T15:40:12;35.30;20.90
65072;DHT22;51663;52.310;17.016;2023-05-10T15:43:14;35.60;20.40
65072;DHT22;51663;52.310;17.016;2023-05-10T15:46:17;36.00;20.00
65072;DHT22;51663;52.310;17.016;2023-05-10T15:49:19;36.20;19.80
65072;DHT22;51663;52.310;17.016;2023-05-10T15:52:21;36.20;19.60
65072;DHT22;51663;52.310;17.016;2023-05-10T15:55:25;36.20;19.80
65072;DHT22;51663;52.310;17.016;2023-05-10T15:58:27;36.30;19.80
65072;DHT22;51663;52.310;17.016;2023-05-10T16:01:30;36.50;19.60
65072;DHT22;51663;52.310;17.016;2023-05-10T16:04:33;36.30;19.40
65072;DHT22;51663;52.310;17.016;2023-05-10T16:07:35;36.00;19.90
65072;DHT22;51663;52.310;17.016;2023-05-10T16:10:38;36.30;19.50
65072;DHT22;51663;52.310;17.016;2023-05-10T16:13:40;36.50;19.30
65072;DHT22;51663;52.310;17.016;2023-05-10T16:16:42;36.70;19.50
65072;DHT22;51663;52.310;17.016;2023-05-10T16:19:45;36.20;19.40
65072;DHT22;51663;52.310;17.016;2023-05-10T16:22:48;36.20;19.40
65072;DHT22;51663;52.310;17.016;2023-05-10T16:25:51;36.30;19.70
65072;DHT22;51663;52.310;17.016;2023-05-10T16:28:53;36.50;19.50
65072;DHT22;51663;52.310;17.016;2023-05-10T16:31:55;36.30;19.40
65072;DHT22;51663;52.310;17.016;2023-05-10T16:34:58;36.00;19.50
65072;DHT22;51663;52.310;17.016;2023-05-10T16:38:00;36.10;19.70
65072;DHT22;51663;52.310;17.016;2023-05-10T16:41:03;36.20;19.40
65072;DHT22;51663;52.310;17.016;2023-05-10T16:44:05;35.90;19.80
65072;DHT22;51663;52.310;17.016;2023-05-10T16:47:07;36.00;19.60
65072;DHT22;51663;52.310;17.016;2023-05-10T16:50:09;35.80;19.50
65072;DHT22;51663;52.310;17.016;2023-05-10T16:53:12;35.80;19.60
65072;DHT22;51663;52.310;17.016;2023-05-10T16:56:14;36.00;19.30
65072;DHT22;51663;52.310;17.016;2023-05-10T16:59:19;36.20;19.40
65072;DHT22;51663;52.310;17.016;2023-05-10T17:02:22;36.50;19.30
65072;DHT22;51663;52.310;17.016;2023-05-10T17:05:25;36.20;19.30
65072;DHT22;51663;52.310;17.016;2023-05-10T17:08:27;36.30;20.00
65072;DHT22;51663;52.310;17.016;2023-05-10T17:11:29;36.20;19.50
65072;DHT22;51663;52.310;17.016;2023-05-10T17:14:31;36.30;19.40
65072;DHT22;51663;52.310;17.016;2023-05-10T17:17:34;36.10;19.60
65072;DHT22;51663;52.310;17.016;2023-05-10T17:20:36;36.10;19.60
65072;DHT22;51663;52.310;17.016;2023-05-10T17:23:38;35.90;19.70
65072;DHT22;51663;52.310;17.016;2023-05-10T17:26:40;36.00;19.80
65072;DHT22;51663;52.310;17.016;2023-05-10T17:29:43;36.20;19.60
65072;DHT22;51663;52.310;17.016;2023-05-10T17:32:45;35.80;19.50
65072;DHT22;51663;52.310;17.016;2023-05-10T17:35:47;35.80;19.60
65072;DHT22;51663;52.310;17.016;2023-05-10T17:38:49;36.00;19.60
65072;DHT22;51663;52.310;17.016;2023-05-10T17:41:52;36.10;19.50
65072;DHT22;51663;52.310;17.016;2023-05-10T17:44:54;36.10;19.60
65072;DHT22;51663;52.310;17.016;2023-05-10T17:47:57;36.10;19.70
65072;DHT22;51663;52.310;17.016;2023-05-10T17:50:59;36.20;19.70
65072;DHT22;51663;52.310;17.016;2023-05-10T17:54:01;36.10;19.80
65072;DHT22;51663;52.310;17.016;2023-05-10T17:57:04;35.90;19.90
65072;DHT22;51663;52.310;17.016;2023-05-10T18:00:06;35.80;20.00
65072;DHT22;51663;52.310;17.016;2023-05-10T18:03:10;35.90;20.00
65072;DHT22;51663;52.310;17.016;2023-05-10T18:06:12;35.90;20.00
65072;DHT22;51663;52.310;17.016;2023-05-10T18:09:14;35.70;20.30
65072;DHT22;51663;52.310;17.016;2023-05-10T18:12:19;35.40;20.70
65072;DHT22;51663;52.310;17.016;2023-05-10T18:15:20;35.50;20.80
65072;DHT22;51663;52.310;17.016;2023-05-10T18:18:23;35.80;20.80
65072;DHT22;51663;52.310;17.016;2023-05-10T18:21:25;35.40;20.70
65072;DHT22;51663;52.310;17.016;2023-05-10T18:24:28;35.30;20.90
65072;DHT22;51663;52.310;17.016;2023-05-10T18:27:40;35.10;20.90
65072;DHT22;51663;52.310;17.016;2023-05-10T18:30:43;34.80;21.00
65072;DHT22;51663;52.310;17.016;2023-05-10T18:33:45;34.80;21.20
65072;DHT22;51663;52.310;17.016;2023-05-10T18:36:47;34.50;21.20
65072;DHT22;51663;52.310;17.016;2023-05-10T18:39:49;34.50;21.30
65072;DHT22;51663;52.310;17.016;2023-05-10T18:42:52;34.30;21.80
